Toyofukumaru — JD2177 — position and weather

sailwx.info

Track history (hours):
 
Tides and Currents Weather Stations Pressure Air Temp Water Temp Dewpoint Dewpoint Depression Visibility Wind Speed Wind Dir Waves Ship Positions

Toyofukumaru

Last reported at 2016-Sep-25 00:33 UTC. Time now 2016-Sep-28 05:13 UTC.
Position N 34°36' E 134°54'.

Length 165 m; draft 6.2 m.

Type: Cargo ship. MMSI: 431200688.

Date/timePositionNaut miles runAvg speedWind from/ knotsBaromVisibWave heightAir tempDewpointWater temp
2016-Sep-25 00:33N 34°36' E 134°54'2613.1
2016-Sep-24 22:33N 34°10' E 135°00'225 7.3
2016-Sep-23 15:31N 34°56' E 139°28'2814.4
2016-Sep-23 13:33N 35°21' E 139°42'3 0.8
2016-Sep-23 09:31N 35°23' E 139°39'0 0.0
2016-Sep-23 06:31N 35°23' E 139°39'0 0.0
2016-Sep-23 04:31N 35°23' E 139°39'5 4.9
2016-Sep-23 03:33N 35°20' E 139°43'1414.4
2016-Sep-23 02:33N 35°06' E 139°45'1514.7
2016-Sep-23 01:31N 34°54' E 139°56'1919.3
2016-Sep-23 00:32N 35°04' E 140°16'1818.4
2016-Sep-22 23:33N 35°15' E 140°33'5718.9
2016-Sep-22 20:33N 36°08' E 140°58'32 0.9
2016-Sep-21 09:33N 35°37' E 140°51'1716.8
2016-Sep-21 08:33N 35°22' E 140°40'46 9.3
2016-Sep-21 03:33N 35°18' E 139°44'1414.1
2016-Sep-21 02:33N 35°30' E 139°52'0 0.0
2016-Sep-20 17:30N 35°31' E 139°53'0 0.0
2016-Sep-20 14:31N 35°31' E 139°53'0 0.0
2016-Sep-20 13:33N 35°31' E 139°53'1 0.3
2016-Sep-20 10:33N 35°31' E 139°51'5 2.5
2016-Sep-20 08:33N 35°30' E 139°45'0 0.0
2016-Sep-20 07:33N 35°30' E 139°45'0 0.0
2016-Sep-20 06:33N 35°30' E 139°45'9 2.1
2016-Sep-20 02:33N 35°23' E 139°39'0 0.0
2016-Sep-19 23:31N 35°23' E 139°39'81 2.5
2016-Sep-18 15:32N 34°29' E 138°25'8016.0
2016-Sep-18 10:33N 35°13' E 139°46'1212.1
2016-Sep-18 09:33N 35°24' E 139°40'1 0.2
2016-Sep-18 02:32N 35°23' E 139°39'2 1.6
2016-Sep-18 01:34N 35°23' E 139°41'1211.9
2016-Sep-18 00:34N 35°12' E 139°47'2110.7
2016-Sep-17 22:33N 34°55' E 140°03'1918.1
2016-Sep-17 21:30N 35°06' E 140°22'1918.1
2016-Sep-17 20:29N 35°19' E 140°38'2419.8
2016-Sep-17 19:16N 35°40' E 140°53'58 2.3
2016-Sep-16 17:30N 36°38' E 141°00'3920.0
2016-Sep-16 15:33N 35°59' E 140°58'5919.6
2016-Sep-16 12:33N 35°07' E 140°24'3210.7
2016-Sep-16 09:33N 35°16' E 139°46'15 7.2
2016-Sep-16 07:31N 35°30' E 139°46'0 0.0
2016-Sep-16 03:31N 35°30' E 139°46'8 8.0
2016-Sep-16 02:33N 35°24' E 139°41'2 1.0
2016-Sep-16 00:31N 35°23' E 139°39'0 0.0
2016-Sep-15 22:31N 35°23' E 139°39'0 0.0
2016-Sep-15 21:31N 35°23' E 139°39'6 5.7
2016-Sep-15 20:33N 35°19' E 139°43'3216.1
2016-Sep-15 18:33N 34°51' E 139°24'  
Track history (hours):
 
Tides and Currents Weather Stations Pressure Air Temp Water Temp Dewpoint Dewpoint Depression Visibility Wind Speed Wind Dir Waves Ship Positions

Toyofukumaru

Last reported at 2016-Sep-25 00:33 UTC. Time now 2016-Sep-28 05:13 UTC.
Position N 34°36' E 134°54'.

Length 165 m; draft 6.2 m.

Type: Cargo ship. MMSI: 431200688.

Date/timePositionNaut miles runAvg speedWind from/ knotsBaromVisibWave heightAir tempDewpointWater temp
2016-Sep-25 00:33N 34°36' E 134°54'2613.1
2016-Sep-24 22:33N 34°10' E 135°00'225 7.3
2016-Sep-23 15:31N 34°56' E 139°28'2814.4
2016-Sep-23 13:33N 35°21' E 139°42'3 0.8
2016-Sep-23 09:31N 35°23' E 139°39'0 0.0
2016-Sep-23 06:31N 35°23' E 139°39'0 0.0
2016-Sep-23 04:31N 35°23' E 139°39'5 4.9
2016-Sep-23 03:33N 35°20' E 139°43'1414.4
2016-Sep-23 02:33N 35°06' E 139°45'1514.7
2016-Sep-23 01:31N 34°54' E 139°56'1919.3
2016-Sep-23 00:32N 35°04' E 140°16'1818.4
2016-Sep-22 23:33N 35°15' E 140°33'5718.9
2016-Sep-22 20:33N 36°08' E 140°58'32 0.9
2016-Sep-21 09:33N 35°37' E 140°51'1716.8
2016-Sep-21 08:33N 35°22' E 140°40'46 9.3
2016-Sep-21 03:33N 35°18' E 139°44'1414.1
2016-Sep-21 02:33N 35°30' E 139°52'0 0.0
2016-Sep-20 17:30N 35°31' E 139°53'0 0.0
2016-Sep-20 14:31N 35°31' E 139°53'0 0.0
2016-Sep-20 13:33N 35°31' E 139°53'1 0.3
2016-Sep-20 10:33N 35°31' E 139°51'5 2.5
2016-Sep-20 08:33N 35°30' E 139°45'0 0.0
2016-Sep-20 07:33N 35°30' E 139°45'0 0.0
2016-Sep-20 06:33N 35°30' E 139°45'9 2.1
2016-Sep-20 02:33N 35°23' E 139°39'0 0.0
2016-Sep-19 23:31N 35°23' E 139°39'81 2.5
2016-Sep-18 15:32N 34°29' E 138°25'8016.0
2016-Sep-18 10:33N 35°13' E 139°46'1212.1
2016-Sep-18 09:33N 35°24' E 139°40'1 0.2
2016-Sep-18 02:32N 35°23' E 139°39'2 1.6
2016-Sep-18 01:34N 35°23' E 139°41'1211.9
2016-Sep-18 00:34N 35°12' E 139°47'2110.7
2016-Sep-17 22:33N 34°55' E 140°03'1918.1
2016-Sep-17 21:30N 35°06' E 140°22'1918.1
2016-Sep-17 20:29N 35°19' E 140°38'2419.8
2016-Sep-17 19:16N 35°40' E 140°53'58 2.3
2016-Sep-16 17:30N 36°38' E 141°00'3920.0
2016-Sep-16 15:33N 35°59' E 140°58'5919.6
2016-Sep-16 12:33N 35°07' E 140°24'3210.7
2016-Sep-16 09:33N 35°16' E 139°46'15 7.2
2016-Sep-16 07:31N 35°30' E 139°46'0 0.0
2016-Sep-16 03:31N 35°30' E 139°46'8 8.0
2016-Sep-16 02:33N 35°24' E 139°41'2 1.0
2016-Sep-16 00:31N 35°23' E 139°39'0 0.0
2016-Sep-15 22:31N 35°23' E 139°39'0 0.0
2016-Sep-15 21:31N 35°23' E 139°39'6 5.7
2016-Sep-15 20:33N 35°19' E 139°43'3216.1
2016-Sep-15 18:33N 34°51' E 139°24'  

Dump ship's entire track history